Time;durP1;ratioP1;P1;durP2;ratioP2;P2;SDS_P1;SDS_P2;PMS_P1;PMS_P2;Temp;Humidity;BMP_temperature;BMP_pressure;BME280_temperature;BME280_humidity;BME280_pressure;Samples;Min_cycle;Max_cycle;Signal;HPM_P1;HPM_P2
2022/03/01 00:00:53;;;;;;;1.30;0.83;;;15.10;99.90;;;;;;5064775;28;20448;-68
2022/03/01 00:03:24;;;;;;;1.10;0.40;;;15.10;99.90;;;;;;5070420;28;20479;-67
2022/03/01 00:05:55;;;;;;;0.70;0.70;;;15.10;99.90;;;;;;5065867;28;20456;-67
2022/03/01 00:08:26;;;;;;;1.07;0.73;;;15.00;99.90;;;;;;5065691;28;20449;-68
2022/03/01 00:10:59;;;;;;;0.83;0.83;;;15.00;99.90;;;;;;5059897;28;20460;-67
2022/03/01 00:13:32;;;;;;;1.10;0.90;;;15.00;99.90;;;;;;5059973;28;20475;-67
2022/03/01 00:16:02;;;;;;;1.10;0.70;;;15.00;99.90;;;;;;5062996;28;20455;-68
2022/03/01 00:18:34;;;;;;;0.50;0.50;;;15.00;99.90;;;;;;5070510;28;20491;-69
2022/03/01 00:21:09;;;;;;;0.80;0.80;;;15.10;99.90;;;;;;5064770;28;20467;-69
2022/03/01 00:23:40;;;;;;;1.03;0.50;;;15.10;99.90;;;;;;5058829;28;20483;-69
2022/03/01 00:26:13;;;;;;;0.80;0.70;;;15.20;99.90;;;;;;5062357;28;21239;-69
2022/03/01 00:28:44;;;;;;;0.93;0.60;;;15.20;99.90;;;;;;5059275;28;20449;-69
2022/03/01 00:31:15;;;;;;;0.77;0.77;;;15.30;99.90;;;;;;5066877;28;20474;-69
2022/03/01 00:33:46;;;;;;;0.60;0.50;;;15.30;99.90;;;;;;5063045;28;20914;-73
2022/03/01 00:36:17;;;;;;;1.07;0.70;;;15.20;99.90;;;;;;5062578;28;20973;-68
2022/03/01 00:38:48;;;;;;;0.93;0.60;;;15.10;99.90;;;;;;5056048;28;20472;-69
2022/03/01 00:41:20;;;;;;;0.43;0.40;;;15.20;99.90;;;;;;5059323;28;20444;-68
2022/03/01 00:43:51;;;;;;;1.33;0.70;;;15.20;99.90;;;;;;5053280;28;20520;-68
2022/03/01 00:46:23;;;;;;;2.40;0.60;;;15.10;99.90;;;;;;5049268;28;20461;-68
2022/03/01 00:48:54;;;;;;;1.33;0.87;;;15.10;99.90;;;;;;5059092;28;20524;-68
2022/03/01 00:51:26;;;;;;;1.53;0.63;;;15.00;99.90;;;;;;5045226;28;20457;-68
2022/03/01 00:53:57;;;;;;;1.17;0.80;;;15.00;99.90;;;;;;5044950;28;20453;-68
2022/03/01 00:56:30;;;;;;;1.00;1.00;;;15.00;99.90;;;;;;5055514;28;20456;-67
2022/03/01 00:59:01;;;;;;;1.07;0.70;;;14.90;99.90;;;;;;5055318;28;20920;-68
2022/03/01 01:01:35;;;;;;;1.27;0.80;;;14.90;99.90;;;;;;5044303;28;20461;-68
2022/03/01 01:04:06;;;;;;;0.50;0.50;;;14.90;99.90;;;;;;5056991;28;20827;-67
2022/03/01 01:06:37;;;;;;;1.93;0.70;;;15.00;99.90;;;;;;5056634;28;20491;-66
2022/03/01 01:09:12;;;;;;;0.60;0.60;;;15.00;99.90;;;;;;5050090;28;20452;-67
2022/03/01 01:11:46;;;;;;;0.87;0.63;;;15.10;99.90;;;;;;5052873;28;20459;-67
2022/03/01 01:14:18;;;;;;;0.70;0.70;;;15.20;99.90;;;;;;5057579;28;20472;-67
2022/03/01 01:16:49;;;;;;;0.70;0.60;;;15.20;99.90;;;;;;5060766;28;20524;-67
2022/03/01 01:19:20;;;;;;;0.60;0.60;;;15.20;99.90;;;;;;5059041;28;20566;-67
2022/03/01 01:24:38;;;;;;;1.30;0.50;;;15.20;99.90;;;;;;5060794;28;20488;-65
2022/03/01 01:27:11;;;;;;;0.70;0.70;;;15.20;99.90;;;;;;5060096;28;20527;-66
2022/03/01 01:29:42;;;;;;;1.20;1.00;;;15.20;99.90;;;;;;5062967;28;20448;-67
2022/03/01 01:32:12;;;;;;;1.00;0.80;;;15.10;99.90;;;;;;5063052;28;20444;-69
2022/03/01 01:34:43;;;;;;;0.83;0.73;;;15.10;99.90;;;;;;5062498;28;20463;-69
2022/03/01 01:37:14;;;;;;;0.90;0.90;;;15.20;99.90;;;;;;5062523;28;20609;-68
2022/03/01 01:39:45;;;;;;;0.60;0.60;;;15.20;99.90;;;;;;5060300;28;20455;-67
2022/03/01 01:42:18;;;;;;;1.20;0.80;;;15.10;99.90;;;;;;5060271;28;20539;-70
2022/03/01 01:44:48;;;;;;;1.23;0.83;;;15.10;99.90;;;;;;5063555;28;20567;-67
2022/03/01 01:47:39;;;;;;;0.70;0.67;;;15.00;99.90;;;;;;5058426;28;20449;-67
2022/03/01 01:50:11;;;;;;;1.40;0.80;;;15.00;99.90;;;;;;5063260;28;20455;-70
2022/03/01 01:52:45;;;;;;;1.50;0.63;;;14.90;99.90;;;;;;5063886;28;20568;-68
2022/03/01 01:55:17;;;;;;;0.90;0.70;;;14.90;99.90;;;;;;5062334;28;21953;-71
2022/03/01 01:57:50;;;;;;;0.80;0.80;;;14.90;99.90;;;;;;5056309;28;20461;-69
2022/03/01 02:00:21;;;;;;;0.80;0.70;;;14.90;99.90;;;;;;5064205;28;20450;-73
2022/03/01 02:02:52;;;;;;;0.90;0.90;;;15.00;99.90;;;;;;5065043;28;20445;-70
2022/03/01 02:05:23;;;;;;;0.90;0.70;;;15.00;99.90;;;;;;5057585;28;20588;-71
2022/03/01 02:07:55;;;;;;;0.83;0.80;;;15.00;99.90;;;;;;5056827;28;20460;-69
2022/03/01 02:10:29;;;;;;;2.10;1.00;;;15.00;99.90;;;;;;5055067;28;20483;-71
2022/03/01 02:13:02;;;;;;;1.57;0.87;;;15.00;99.90;;;;;;5058256;28;21732;-72
2022/03/01 02:15:35;;;;;;;0.80;0.50;;;14.80;99.90;;;;;;5059291;28;21772;-70
2022/03/01 02:18:10;;;;;;;1.23;0.70;;;14.80;99.90;;;;;;5053894;28;20464;-72
2022/03/01 02:20:42;;;;;;;1.10;1.00;;;14.80;99.90;;;;;;5061427;28;20553;-69
2022/03/01 02:23:14;;;;;;;0.80;0.80;;;14.70;99.90;;;;;;5053290;28;20458;-68
2022/03/01 02:25:45;;;;;;;0.77;0.77;;;14.70;99.90;;;;;;5060684;28;20535;-71
2022/03/01 02:28:15;;;;;;;1.00;0.90;;;14.70;99.90;;;;;;5062559;28;20555;-71
2022/03/01 02:30:46;;;;;;;1.03;0.60;;;14.70;99.90;;;;;;5063879;28;20479;-67
2022/03/01 02:33:25;;;;;;;0.80;0.80;;;14.70;99.90;;;;;;5057052;28;20461;-69
2022/03/01 02:35:57;;;;;;;1.53;0.87;;;14.60;99.90;;;;;;5056841;28;20454;-70
2022/03/01 02:38:28;;;;;;;0.87;0.63;;;14.60;99.90;;;;;;5056731;28;20464;-72
2022/03/01 02:40:59;;;;;;;1.00;0.90;;;14.70;99.90;;;;;;5059168;28;20482;-68
2022/03/01 02:43:30;;;;;;;2.30;1.07;;;14.60;99.90;;;;;;5057783;28;20472;-68
2022/03/01 02:46:01;;;;;;;0.80;0.80;;;14.70;99.90;;;;;;5057122;28;20880;-69
2022/03/01 02:48:32;;;;;;;2.87;1.20;;;14.70;99.90;;;;;;5060915;28;20544;-69
2022/03/01 02:51:04;;;;;;;2.33;1.53;;;14.60;99.90;;;;;;5059341;28;20460;-68
2022/03/01 02:53:36;;;;;;;0.90;0.80;;;14.60;99.90;;;;;;5058311;28;20457;-67
2022/03/01 02:56:08;;;;;;;0.93;0.87;;;14.70;99.90;;;;;;5059533;28;20453;-69
2022/03/01 02:58:41;;;;;;;1.00;1.00;;;14.60;99.90;;;;;;5059257;28;20871;-68
2022/03/01 03:01:12;;;;;;;0.70;0.63;;;14.70;99.90;;;;;;5062332;28;20453;-67
2022/03/01 03:03:43;;;;;;;1.17;0.90;;;14.70;99.90;;;;;;5063409;28;20771;-73
2022/03/01 03:06:15;;;;;;;0.80;0.77;;;14.70;99.90;;;;;;5050930;28;20448;-69
2022/03/01 03:08:46;;;;;;;1.17;0.93;;;14.70;99.90;;;;;;5058785;28;20552;-68
2022/03/01 03:11:18;;;;;;;0.67;0.67;;;14.70;99.90;;;;;;5059939;28;20856;-69
2022/03/01 03:13:49;;;;;;;0.70;0.60;;;14.70;99.90;;;;;;5059540;28;22285;-70
2022/03/01 03:16:20;;;;;;;0.80;0.67;;;14.80;99.90;;;;;;5062310;28;20479;-68
2022/03/01 03:18:51;;;;;;;0.90;0.80;;;14.80;99.90;;;;;;5059429;28;20452;-69
2022/03/01 03:21:24;;;;;;;1.60;1.10;;;14.80;99.90;;;;;;5046529;28;20461;-69
2022/03/01 03:23:55;;;;;;;1.20;0.70;;;14.90;99.90;;;;;;5056169;28;20547;-68
2022/03/01 03:26:26;;;;;;;3.63;0.90;;;14.90;99.90;;;;;;5061566;28;20531;-68
2022/03/01 03:28:57;;;;;;;1.07;0.97;;;14.90;99.90;;;;;;5061354;28;20527;-68
2022/03/01 03:31:28;;;;;;;1.77;0.90;;;15.00;99.90;;;;;;5058259;28;20455;-68
2022/03/01 03:33:59;;;;;;;1.43;0.73;;;15.00;99.90;;;;;;5064538;28;20516;-68
2022/03/01 03:36:31;;;;;;;1.33;0.73;;;15.10;99.90;;;;;;5063442;28;20560;-69
2022/03/01 03:39:03;;;;;;;1.50;0.90;;;15.10;99.90;;;;;;5062913;28;20951;-71
2022/03/01 03:41:35;;;;;;;0.93;0.60;;;15.20;99.90;;;;;;5064011;28;20482;-70
2022/03/01 03:44:07;;;;;;;3.67;1.20;;;15.20;99.90;;;;;;5061585;28;20448;-68
2022/03/01 03:46:38;;;;;;;2.20;1.20;;;15.20;99.90;;;;;;5064861;28;20449;-68
2022/03/01 03:49:09;;;;;;;0.80;0.80;;;15.20;99.90;;;;;;5055952;28;20461;-69
2022/03/01 03:51:42;;;;;;;1.57;1.23;;;15.10;99.90;;;;;;5060162;28;20471;-68
2022/03/01 03:54:13;;;;;;;1.10;1.00;;;15.00;99.90;;;;;;5046471;28;20495;-69
2022/03/01 03:56:44;;;;;;;1.37;1.27;;;15.00;99.90;;;;;;5059252;28;20487;-69
2022/03/01 03:59:15;;;;;;;2.17;1.10;;;14.90;99.90;;;;;;5061542;28;20471;-69
2022/03/01 04:01:49;;;;;;;1.40;1.30;;;14.90;99.90;;;;;;5063658;28;20487;-69
2022/03/01 04:04:20;;;;;;;1.87;1.20;;;14.90;99.90;;;;;;5065744;28;20455;-69
2022/03/01 04:06:55;;;;;;;1.37;1.10;;;14.90;99.90;;;;;;5063490;28;20511;-68
2022/03/01 04:09:26;;;;;;;1.40;1.30;;;15.00;99.90;;;;;;5062190;28;20467;-69
2022/03/01 04:11:58;;;;;;;1.47;1.37;;;14.90;99.90;;;;;;5072996;28;20575;-70
2022/03/01 04:14:32;;;;;;;1.07;0.90;;;14.90;99.90;;;;;;5063452;28;20955;-67
2022/03/01 04:17:04;;;;;;;1.43;1.30;;;14.80;99.90;;;;;;5063858;28;20559;-68
2022/03/01 04:19:34;;;;;;;1.20;1.10;;;14.80;99.90;;;;;;5065557;28;20483;-68
2022/03/01 04:22:07;;;;;;;2.03;1.50;;;14.80;99.90;;;;;;5062582;28;20457;-69
2022/03/01 04:24:38;;;;;;;1.50;1.20;;;14.70;99.90;;;;;;5056968;28;20513;-69
2022/03/01 04:27:09;;;;;;;1.50;1.40;;;14.70;99.90;;;;;;5073609;28;20458;-68
2022/03/01 04:29:40;;;;;;;1.20;1.10;;;14.80;99.90;;;;;;5067933;28;20456;-69
2022/03/01 04:32:11;;;;;;;1.40;1.30;;;14.80;99.90;;;;;;5065019;28;20451;-70
2022/03/01 04:34:42;;;;;;;1.17;1.03;;;14.80;99.90;;;;;;5067986;28;20840;-70
2022/03/01 04:37:15;;;;;;;1.23;1.10;;;14.70;99.90;;;;;;5064137;28;20449;-69
2022/03/01 04:39:46;;;;;;;1.80;1.30;;;14.80;99.90;;;;;;5060752;28;20452;-68
2022/03/01 04:42:19;;;;;;;1.23;0.93;;;14.70;99.90;;;;;;5062718;28;20449;-69
2022/03/01 04:44:50;;;;;;;0.93;0.90;;;14.70;99.90;;;;;;5062666;28;20463;-68
2022/03/01 04:47:21;;;;;;;1.10;1.00;;;14.70;99.90;;;;;;5047294;28;21604;-68
2022/03/01 04:49:52;;;;;;;1.10;1.00;;;14.80;99.90;;;;;;5057160;28;20461;-68
2022/03/01 04:52:25;;;;;;;1.37;0.93;;;14.80;99.90;;;;;;5056901;28;21142;-68
2022/03/01 04:54:56;;;;;;;3.17;1.10;;;14.80;99.90;;;;;;5061629;28;20490;-68
2022/03/01 04:57:27;;;;;;;3.70;1.13;;;14.90;99.90;;;;;;5061130;28;21022;-68
2022/03/01 04:59:58;;;;;;;1.40;1.00;;;14.90;99.90;;;;;;5062601;28;20449;-68
2022/03/01 05:02:29;;;;;;;2.50;1.13;;;14.80;99.90;;;;;;5061874;28;20519;-69
2022/03/01 05:05:00;;;;;;;1.90;1.10;;;14.90;99.90;;;;;;5050643;28;20452;-64
2022/03/01 05:07:35;;;;;;;1.27;1.17;;;14.90;99.90;;;;;;5061335;28;20532;-64
2022/03/01 05:10:08;;;;;;;1.13;1.03;;;14.80;99.90;;;;;;5062815;28;20954;-69
2022/03/01 05:12:50;;;;;;;0.90;0.90;;;14.80;99.90;;;;;;5063398;28;21030;-69
2022/03/01 05:15:25;;;;;;;2.97;1.20;;;14.90;99.90;;;;;;5073090;28;20455;-68
2022/03/01 05:17:57;;;;;;;1.87;1.00;;;14.90;99.90;;;;;;5074864;28;20465;-69
2022/03/01 05:20:29;;;;;;;1.37;1.03;;;14.80;99.90;;;;;;5064678;28;20456;-69
2022/03/01 05:23:01;;;;;;;1.83;0.97;;;14.70;99.90;;;;;;5068128;28;20526;-69
2022/03/01 05:25:33;;;;;;;1.40;1.20;;;14.70;99.90;;;;;;5076456;28;20491;-69
2022/03/01 05:28:03;;;;;;;1.40;1.10;;;14.70;99.90;;;;;;5060952;28;20471;-69
2022/03/01 05:30:35;;;;;;;1.13;1.03;;;14.70;99.90;;;;;;5062056;28;20782;-69
2022/03/01 05:33:06;;;;;;;1.80;1.27;;;14.70;99.90;;;;;;5062108;28;20464;-69
2022/03/01 05:35:38;;;;;;;2.33;1.13;;;14.60;99.90;;;;;;5056415;28;20445;-70
2022/03/01 05:38:11;;;;;;;4.70;1.50;;;14.60;99.90;;;;;;5062727;28;20520;-69
2022/03/01 05:40:43;;;;;;;1.30;1.20;;;14.50;99.90;;;;;;5066611;28;20449;-69
2022/03/01 05:43:14;;;;;;;2.17;1.80;;;14.30;99.90;;;;;;5063992;28;20456;-68
2022/03/01 05:45:44;;;;;;;1.40;1.20;;;14.20;99.90;;;;;;5073311;28;20792;-69
2022/03/01 05:48:16;;;;;;;1.60;1.40;;;14.20;99.90;;;;;;5070034;28;20451;-70
2022/03/01 05:50:47;;;;;;;1.63;1.30;;;14.10;99.90;;;;;;5063955;28;20482;-69
2022/03/01 05:53:20;;;;;;;1.63;1.53;;;14.10;99.90;;;;;;5054031;28;20447;-69
2022/03/01 05:55:55;;;;;;;1.70;1.60;;;14.00;99.90;;;;;;5068902;28;20456;-68
2022/03/01 05:58:26;;;;;;;1.40;1.30;;;13.90;99.90;;;;;;5060759;28;20459;-67
2022/03/01 06:00:57;;;;;;;1.80;1.50;;;13.80;99.90;;;;;;5061746;28;20548;-67
2022/03/01 06:03:28;;;;;;;2.10;1.90;;;13.70;99.90;;;;;;5062194;28;20456;-68
2022/03/01 06:05:59;;;;;;;1.37;1.27;;;13.60;99.90;;;;;;5069264;28;20502;-68
2022/03/01 06:08:31;;;;;;;1.80;1.70;;;13.60;99.90;;;;;;5064434;28;20448;-70
2022/03/01 06:11:02;;;;;;;1.77;1.10;;;13.50;99.90;;;;;;5067054;28;20452;-68
2022/03/01 06:13:33;;;;;;;1.30;1.20;;;13.50;99.90;;;;;;5060981;28;20468;-67
2022/03/01 06:16:04;;;;;;;3.37;1.30;;;13.40;99.90;;;;;;5064891;28;20455;-67
2022/03/01 06:18:34;;;;;;;1.30;1.20;;;13.40;99.90;;;;;;5075061;28;20447;-67
2022/03/01 06:21:06;;;;;;;2.87;1.60;;;13.40;99.90;;;;;;5065875;28;20449;-67
2022/03/01 06:23:38;;;;;;;1.33;1.23;;;13.30;99.90;;;;;;5070471;28;20443;-67
2022/03/01 06:26:11;;;;;;;1.27;0.80;;;13.30;99.90;;;;;;5080822;28;20486;-67
2022/03/01 06:28:41;;;;;;;2.33;1.30;;;13.30;99.90;;;;;;5070724;28;20801;-67
2022/03/01 06:31:12;;;;;;;1.60;1.50;;;13.30;99.90;;;;;;5067633;28;20451;-67
2022/03/01 06:33:44;;;;;;;1.40;1.30;;;13.20;99.90;;;;;;5062941;28;20447;-67
2022/03/01 06:36:15;;;;;;;2.40;1.40;;;13.10;99.90;;;;;;5057192;28;20474;-67
2022/03/01 06:38:47;;;;;;;3.10;1.50;;;13.10;99.90;;;;;;5065175;28;20457;-67
2022/03/01 06:41:18;;;;;;;2.13;1.50;;;13.10;99.90;;;;;;5066342;28;20455;-67
2022/03/01 06:43:49;;;;;;;4.03;1.37;;;13.10;99.90;;;;;;5064074;28;20452;-66
2022/03/01 06:46:20;;;;;;;2.20;1.80;;;13.10;99.90;;;;;;5065437;28;20476;-66
2022/03/01 06:48:51;;;;;;;2.60;1.67;;;13.00;99.90;;;;;;5064638;28;20497;-66
2022/03/01 06:51:22;;;;;;;2.27;1.73;;;13.00;99.90;;;;;;5067680;28;20474;-66
2022/03/01 06:53:54;;;;;;;1.63;1.30;;;13.00;99.90;;;;;;5069006;28;20483;-67
2022/03/01 06:56:25;;;;;;;1.40;1.30;;;13.00;99.90;;;;;;5067110;28;20464;-67
2022/03/01 06:58:56;;;;;;;1.17;1.07;;;13.00;99.90;;;;;;5063713;28;20464;-66
2022/03/01 07:01:27;;;;;;;1.40;1.30;;;13.00;99.90;;;;;;5065161;28;20471;-66
2022/03/01 07:03:59;;;;;;;2.50;1.80;;;13.00;99.90;;;;;;5065101;28;20467;-66
2022/03/01 07:06:29;;;;;;;2.03;1.70;;;13.00;99.90;;;;;;5063965;28;20484;-66
2022/03/01 07:09:02;;;;;;;1.77;1.37;;;13.00;99.90;;;;;;5077475;28;20596;-66
2022/03/01 07:11:33;;;;;;;2.10;1.40;;;12.90;99.90;;;;;;5064525;28;20452;-68
2022/03/01 07:14:04;;;;;;;3.20;1.53;;;12.90;99.90;;;;;;5065013;28;20468;-67
2022/03/01 07:16:35;;;;;;;1.70;1.60;;;12.90;99.90;;;;;;5065857;28;20448;-65
2022/03/01 07:19:05;;;;;;;1.73;1.63;;;12.80;99.90;;;;;;5064510;28;20974;-66
2022/03/01 07:21:36;;;;;;;6.40;2.00;;;12.80;99.90;;;;;;5064361;28;20452;-68
2022/03/01 07:24:09;;;;;;;4.47;2.40;;;12.80;99.90;;;;;;5064615;28;20459;-67
2022/03/01 07:26:40;;;;;;;2.63;2.17;;;12.80;99.90;;;;;;5063750;28;20499;-68
2022/03/01 07:29:11;;;;;;;1.70;1.50;;;12.80;99.90;;;;;;5071938;28;20459;-67
2022/03/01 07:31:42;;;;;;;1.90;1.80;;;12.80;99.90;;;;;;5074114;28;20452;-67
2022/03/01 07:34:13;;;;;;;2.40;1.10;;;12.70;99.90;;;;;;5064127;28;20944;-67
2022/03/01 07:36:44;;;;;;;1.20;1.07;;;12.70;99.90;;;;;;5063982;28;20461;-68
2022/03/01 07:39:17;;;;;;;2.93;1.47;;;12.70;99.90;;;;;;5069394;28;20453;-67
2022/03/01 07:41:50;;;;;;;2.00;1.40;;;12.80;99.90;;;;;;5065239;28;20462;-67
2022/03/01 07:44:22;;;;;;;1.97;1.37;;;12.70;99.90;;;;;;5063647;28;20441;-68
2022/03/01 07:46:54;;;;;;;5.33;2.33;;;12.70;99.90;;;;;;5065075;28;20507;-68
2022/03/01 07:49:25;;;;;;;3.97;1.80;;;12.70;99.90;;;;;;5063905;28;20444;-68
2022/03/01 07:51:56;;;;;;;1.50;1.37;;;12.70;99.90;;;;;;5079210;28;20462;-68
2022/03/01 07:54:28;;;;;;;2.27;1.47;;;12.70;99.90;;;;;;5072568;28;20470;-67
2022/03/01 07:56:59;;;;;;;2.43;1.57;;;12.70;99.90;;;;;;5071417;28;20460;-68
2022/03/01 07:59:30;;;;;;;1.70;1.60;;;12.70;99.90;;;;;;5065032;28;20454;-68
2022/03/01 08:02:01;;;;;;;2.07;1.30;;;12.70;99.90;;;;;;5067213;28;20453;-68
2022/03/01 08:04:32;;;;;;;2.07;1.80;;;12.70;99.90;;;;;;5063890;28;20452;-68
2022/03/01 08:07:03;;;;;;;1.97;1.73;;;12.70;99.90;;;;;;5073673;28;20578;-68
2022/03/01 08:09:35;;;;;;;2.50;1.30;;;12.70;99.90;;;;;;5064963;28;20452;-68
2022/03/01 08:12:07;;;;;;;1.63;1.53;;;12.70;99.90;;;;;;5069594;28;20471;-68
2022/03/01 08:14:38;;;;;;;2.30;1.43;;;12.60;99.90;;;;;;5071468;28;20470;-68
2022/03/01 08:17:10;;;;;;;1.50;1.20;;;12.60;99.90;;;;;;5072113;28;20579;-67
2022/03/01 08:19:41;;;;;;;1.60;1.50;;;12.60;99.90;;;;;;5068719;28;20452;-68
2022/03/01 08:22:13;;;;;;;2.70;1.60;;;12.70;99.90;;;;;;5054844;28;20452;-68
2022/03/01 08:24:45;;;;;;;1.60;1.40;;;12.70;99.90;;;;;;5067556;28;20563;-67
2022/03/01 08:27:16;;;;;;;1.30;1.20;;;12.60;99.90;;;;;;5062515;28;20494;-67
2022/03/01 08:29:47;;;;;;;1.33;1.23;;;12.60;99.90;;;;;;5063092;28;20924;-67
2022/03/01 08:32:18;;;;;;;2.27;1.40;;;12.60;99.90;;;;;;5063488;28;20448;-67
2022/03/01 08:34:49;;;;;;;1.57;1.47;;;12.60;99.90;;;;;;5063747;28;20452;-67
2022/03/01 08:37:20;;;;;;;1.73;1.10;;;12.60;99.90;;;;;;5063524;28;20474;-67
2022/03/01 08:39:53;;;;;;;1.33;1.23;;;12.60;99.90;;;;;;5063579;28;20452;-68
2022/03/01 08:42:24;;;;;;;2.07;1.33;;;12.60;99.90;;;;;;5062951;28;20453;-67
2022/03/01 08:44:54;;;;;;;1.40;1.27;;;12.60;99.90;;;;;;5067042;28;20563;-67
2022/03/01 08:47:31;;;;;;;3.83;1.57;;;12.60;99.90;;;;;;5068623;28;20649;-68
2022/03/01 08:50:03;;;;;;;1.97;1.50;;;12.60;99.90;;;;;;5072792;28;20512;-67
2022/03/01 08:52:54;;;;;;;1.67;1.57;;;12.60;99.90;;;;;;5053827;28;20440;-66
2022/03/01 08:55:26;;;;;;;1.63;1.53;;;12.60;99.90;;;;;;5074029;28;20456;-67
2022/03/01 08:57:58;;;;;;;2.80;1.70;;;12.60;99.90;;;;;;5064043;28;21022;-67
2022/03/01 09:00:30;;;;;;;3.00;1.83;;;12.50;99.90;;;;;;5050004;28;20445;-67
2022/03/01 09:03:01;;;;;;;3.50;1.53;;;12.60;99.90;;;;;;5058765;28;20558;-67
2022/03/01 09:05:35;;;;;;;1.57;1.47;;;12.50;99.90;;;;;;5074397;28;20447;-67
2022/03/01 09:08:12;;;;;;;2.03;1.43;;;12.50;99.90;;;;;;5071845;28;20488;-66
2022/03/01 09:10:45;;;;;;;3.27;1.70;;;12.50;99.90;;;;;;5062838;28;20479;-67
2022/03/01 09:13:17;;;;;;;1.93;1.30;;;12.50;99.90;;;;;;5067508;28;20835;-66
2022/03/01 09:15:48;;;;;;;1.57;1.40;;;12.50;99.90;;;;;;5062901;28;20444;-67
2022/03/01 09:18:18;;;;;;;2.20;1.70;;;12.50;99.90;;;;;;5063182;28;20514;-67
2022/03/01 09:20:49;;;;;;;1.60;1.50;;;12.50;99.90;;;;;;5062891;28;20574;-67
2022/03/01 09:23:20;;;;;;;1.53;1.40;;;12.50;99.90;;;;;;5065500;28;20448;-67
2022/03/01 09:25:53;;;;;;;1.50;1.40;;;12.40;99.90;;;;;;5065258;28;20457;-67
2022/03/01 09:28:24;;;;;;;2.27;1.53;;;12.40;99.90;;;;;;5061480;28;20480;-66
2022/03/01 09:30:55;;;;;;;1.50;1.40;;;12.40;99.90;;;;;;5077198;28;20444;-67
2022/03/01 09:33:26;;;;;;;2.40;1.10;;;12.40;99.90;;;;;;5062871;28;20449;-67
2022/03/01 09:35:59;;;;;;;3.73;2.27;;;12.40;99.90;;;;;;5069734;28;20462;-66
2022/03/01 09:38:30;;;;;;;1.63;1.53;;;12.40;99.90;;;;;;5071689;28;20477;-65
2022/03/01 09:41:03;;;;;;;1.47;1.37;;;12.40;99.90;;;;;;5063621;28;20457;-67
2022/03/01 09:43:38;;;;;;;1.90;1.27;;;12.30;99.90;;;;;;5049355;28;20452;-67
2022/03/01 09:46:10;;;;;;;1.80;1.50;;;12.30;99.90;;;;;;5067663;28;20444;-67
2022/03/01 09:48:41;;;;;;;1.73;1.50;;;12.40;99.90;;;;;;5062115;28;20540;-67
2022/03/01 09:51:13;;;;;;;1.60;1.50;;;12.40;99.90;;;;;;5071305;28;20444;-65
2022/03/01 09:53:46;;;;;;;3.10;1.47;;;12.40;99.90;;;;;;5065739;28;20462;-66
2022/03/01 09:56:21;;;;;;;1.83;1.23;;;12.30;99.90;;;;;;5067981;28;20964;-65
2022/03/01 09:58:57;;;;;;;1.87;1.10;;;12.30;99.90;;;;;;5066957;28;20448;-65
2022/03/01 10:01:28;;;;;;;1.50;1.40;;;12.30;99.90;;;;;;5060860;28;20826;-65
2022/03/01 10:04:10;;;;;;;1.67;1.57;;;12.40;99.90;;;;;;5066601;28;20447;-65
2022/03/01 10:06:48;;;;;;;1.30;1.20;;;12.30;99.90;;;;;;5067533;28;20436;-65
2022/03/01 10:09:21;;;;;;;2.23;1.70;;;12.30;99.90;;;;;;5062126;28;20494;-66
2022/03/01 10:11:54;;;;;;;1.40;1.30;;;12.30;99.90;;;;;;5066780;28;20535;-66
2022/03/01 10:14:32;;;;;;;1.70;1.60;;;12.30;99.90;;;;;;5073703;28;20482;-66
2022/03/01 10:17:14;;;;;;;2.03;1.17;;;12.30;99.90;;;;;;5061776;28;20452;-66
2022/03/01 10:19:45;;;;;;;1.33;1.10;;;12.30;99.90;;;;;;5066090;28;20447;-66
2022/03/01 10:22:16;;;;;;;1.10;1.10;;;12.30;99.90;;;;;;5071859;28;20470;-66
2022/03/01 10:24:50;;;;;;;1.87;1.30;;;12.30;99.90;;;;;;5066342;28;20448;-66
2022/03/01 10:27:30;;;;;;;2.90;1.40;;;12.30;99.90;;;;;;5059772;28;20799;-66
2022/03/01 10:30:01;;;;;;;1.23;1.10;;;12.30;99.90;;;;;;5057803;28;20479;-66
2022/03/01 10:32:32;;;;;;;1.83;1.73;;;12.30;99.90;;;;;;5070236;28;20452;-66
2022/03/01 10:35:09;;;;;;;1.30;1.20;;;12.30;99.90;;;;;;5076170;28;20446;-66
2022/03/01 10:37:41;;;;;;;1.47;1.33;;;12.30;99.90;;;;;;5081488;28;20479;-66
2022/03/01 10:40:17;;;;;;;1.37;1.10;;;12.30;99.90;;;;;;5066884;28;20440;-66
2022/03/01 10:43:01;;;;;;;1.03;0.93;;;12.40;99.90;;;;;;5069147;28;20480;-65
2022/03/01 10:45:37;;;;;;;1.73;0.90;;;12.30;99.90;;;;;;5074018;28;20954;-66
2022/03/01 10:48:10;;;;;;;1.57;1.33;;;12.30;99.90;;;;;;5064862;28;20523;-66
2022/03/01 10:50:42;;;;;;;1.03;0.90;;;12.30;99.90;;;;;;5070266;28;20635;-66
2022/03/01 10:53:12;;;;;;;1.77;1.07;;;12.30;99.90;;;;;;5064430;28;20538;-66
2022/03/01 10:55:43;;;;;;;2.20;1.10;;;12.30;99.90;;;;;;5066631;28;20801;-66
2022/03/01 10:58:17;;;;;;;1.30;1.20;;;12.30;99.90;;;;;;5063627;28;20461;-66
2022/03/01 11:00:49;;;;;;;0.90;0.90;;;12.30;99.90;;;;;;5062232;28;20451;-66
2022/03/01 11:03:20;;;;;;;1.30;1.20;;;12.30;99.90;;;;;;5071544;28;20499;-66
2022/03/01 11:05:56;;;;;;;3.43;1.20;;;12.30;99.90;;;;;;5068290;28;20480;-66
2022/03/01 11:08:36;;;;;;;2.57;1.50;;;12.30;99.90;;;;;;5064158;28;20479;-66
2022/03/01 11:11:09;;;;;;;1.30;1.20;;;12.30;99.90;;;;;;5065257;28;20531;-66
2022/03/01 11:13:42;;;;;;;1.60;1.50;;;12.30;99.90;;;;;;5065128;28;20897;-66
2022/03/01 11:16:35;;;;;;;1.73;1.20;;;12.30;99.90;;;;;;5064341;28;20520;-66
2022/03/01 11:19:20;;;;;;;1.53;1.40;;;12.30;99.90;;;;;;5075129;28;20863;-65
2022/03/01 11:21:52;;;;;;;1.20;1.20;;;12.30;99.90;;;;;;5065780;28;20448;-66
2022/03/01 11:24:24;;;;;;;1.37;1.27;;;12.30;99.90;;;;;;5071440;28;20455;-66
2022/03/01 11:27:05;;;;;;;2.40;1.07;;;12.40;99.90;;;;;;5072826;28;20819;-66
2022/03/01 11:29:42;;;;;;;1.60;1.50;;;12.30;99.90;;;;;;5064600;28;20570;-66
2022/03/01 11:32:14;;;;;;;1.10;1.00;;;12.30;99.90;;;;;;5065823;28;20924;-65
2022/03/01 11:34:46;;;;;;;1.40;1.30;;;12.30;99.90;;;;;;5064302;28;20780;-66
2022/03/01 11:37:18;;;;;;;1.30;1.20;;;12.30;99.90;;;;;;5072190;28;20458;-65
2022/03/01 11:39:56;;;;;;;1.53;1.43;;;12.20;99.90;;;;;;5077397;28;20459;-66
2022/03/01 11:42:33;;;;;;;1.87;1.40;;;12.30;99.90;;;;;;5075841;28;20493;-66
2022/03/01 11:45:12;;;;;;;1.70;1.30;;;12.30;99.90;;;;;;5066170;28;20504;-65
2022/03/01 11:47:43;;;;;;;1.60;1.50;;;12.30;99.90;;;;;;5060866;28;20521;-65
2022/03/01 11:50:23;;;;;;;2.00;1.30;;;12.30;99.90;;;;;;5071537;28;20483;-65
2022/03/01 11:52:58;;;;;;;1.67;1.57;;;12.30;99.90;;;;;;5064198;28;20448;-66
2022/03/01 11:55:36;;;;;;;1.80;1.07;;;12.30;99.90;;;;;;5068571;28;20600;-65
2022/03/01 11:58:07;;;;;;;1.53;1.10;;;12.30;99.90;;;;;;5075494;28;20462;-66
2022/03/01 12:00:42;;;;;;;1.53;1.43;;;12.30;99.90;;;;;;5075522;28;20459;-65
2022/03/01 12:03:16;;;;;;;1.80;1.53;;;12.30;99.90;;;;;;5053458;28;20817;-66
2022/03/01 12:05:49;;;;;;;1.70;1.30;;;12.30;99.90;;;;;;5064152;28;20512;-66
2022/03/01 12:08:21;;;;;;;1.30;1.20;;;12.30;99.90;;;;;;5063987;28;20452;-65
2022/03/01 12:11:00;;;;;;;2.13;1.23;;;12.30;99.90;;;;;;5073290;28;20519;-65
2022/03/01 12:13:37;;;;;;;1.87;1.10;;;12.30;99.90;;;;;;5062200;28;20841;-65
2022/03/01 12:16:13;;;;;;;1.30;1.20;;;12.30;99.90;;;;;;5063262;28;20819;-65
2022/03/01 12:18:45;;;;;;;1.90;1.23;;;12.30;99.90;;;;;;5063442;28;20479;-65
2022/03/01 12:21:16;;;;;;;1.60;1.50;;;12.30;99.90;;;;;;5064779;28;20440;-66
2022/03/01 12:23:48;;;;;;;1.17;1.00;;;12.30;99.90;;;;;;5052010;28;20448;-65
2022/03/01 12:26:19;;;;;;;1.63;1.33;;;12.30;99.90;;;;;;5076250;28;20456;-65
2022/03/01 12:28:52;;;;;;;1.27;1.17;;;12.30;99.90;;;;;;5056784;28;20471;-65
2022/03/01 12:31:27;;;;;;;2.20;1.40;;;12.30;99.90;;;;;;5062725;28;20460;-65
2022/03/01 12:34:01;;;;;;;1.33;1.23;;;12.30;99.90;;;;;;5063037;28;20753;-65
2022/03/01 12:36:34;;;;;;;2.23;1.40;;;12.30;99.90;;;;;;5072033;28;20791;-65
2022/03/01 12:39:08;;;;;;;2.10;1.10;;;12.30;99.90;;;;;;5064271;28;20451;-65
2022/03/01 12:41:44;;;;;;;2.40;1.20;;;12.30;99.90;;;;;;5063084;28;20452;-65
2022/03/01 12:44:16;;;;;;;1.47;1.37;;;12.30;99.90;;;;;;5062182;28;20448;-65
2022/03/01 12:46:49;;;;;;;3.70;2.03;;;12.30;99.90;;;;;;5063020;28;20835;-65
2022/03/01 12:49:23;;;;;;;1.47;1.30;;;12.30;99.90;;;;;;5061984;28;20516;-65
2022/03/01 12:51:56;;;;;;;1.53;1.30;;;12.40;99.90;;;;;;5071915;28;21019;-65
2022/03/01 12:54:28;;;;;;;1.80;1.37;;;12.30;99.90;;;;;;5063239;28;20459;-66
2022/03/01 12:57:00;;;;;;;1.43;1.33;;;12.30;99.90;;;;;;5071753;28;20574;-65
2022/03/01 12:59:34;;;;;;;1.70;1.17;;;12.30;99.90;;;;;;5058495;28;20463;-65
2022/03/01 13:02:16;;;;;;;2.30;1.63;;;12.30;99.90;;;;;;5071837;28;20460;-65
2022/03/01 13:04:49;;;;;;;3.83;1.60;;;12.30;99.90;;;;;;5064856;28;20455;-66
2022/03/01 13:07:31;;;;;;;1.53;1.43;;;12.30;99.90;;;;;;5072932;28;20440;-65
2022/03/01 13:10:06;;;;;;;1.90;1.50;;;12.30;99.90;;;;;;5063131;28;20468;-65
2022/03/01 13:12:37;;;;;;;2.53;2.00;;;12.30;99.90;;;;;;5065219;28;20761;-66
2022/03/01 13:15:10;;;;;;;2.77;2.57;;;12.30;99.90;;;;;;5062195;28;20462;-66
2022/03/01 13:17:53;;;;;;;2.50;2.30;;;12.30;99.90;;;;;;5060450;28;20456;-66